createdAt,value
2023-10-09T00:01:43.170Z,17.26
2023-10-09T00:03:43.502Z,17.19
2023-10-09T00:05:07.996Z,17.2
2023-10-09T00:07:08.096Z,17.26
2023-10-09T00:09:08.248Z,17.19
2023-10-09T00:11:07.974Z,17.22
2023-10-09T00:13:08.008Z,17.16
2023-10-09T00:15:08.368Z,17.17
2023-10-09T00:17:07.967Z,17.18
2023-10-09T00:20:53.090Z,17.05
2023-10-09T00:22:52.696Z,17.04
2023-10-09T00:24:52.570Z,16.97
2023-10-09T00:26:52.726Z,16.94
2023-10-09T00:28:52.862Z,16.81
2023-10-09T00:30:52.587Z,16.76
2023-10-09T00:32:52.911Z,16.69
2023-10-09T00:35:46.317Z,16.67
2023-10-09T00:37:46.321Z,16.59
2023-10-09T00:39:46.417Z,16.58
2023-10-09T00:41:46.368Z,16.59
2023-10-09T00:43:46.347Z,16.43
2023-10-09T00:45:46.501Z,16.29
2023-10-09T00:47:46.320Z,16.38
2023-10-09T00:50:21.208Z,16.45
2023-10-09T00:52:21.326Z,16.39
2023-10-09T00:54:21.271Z,16.4
2023-10-09T00:56:21.211Z,16.39
2023-10-09T00:58:21.612Z,16.37
2023-10-09T01:00:21.401Z,16.29
2023-10-09T01:02:21.230Z,16.26
2023-10-09T01:04:22.180Z,16.2
2023-10-09T01:06:00.196Z,16.19
2023-10-09T01:08:00.116Z,16.19
2023-10-09T01:10:00.400Z,16.15
2023-10-09T01:12:00.216Z,16.04
2023-10-09T01:14:00.139Z,15.98
2023-10-09T01:16:00.360Z,15.9
2023-10-09T01:18:00.235Z,15.81
2023-10-09T01:20:44.847Z,15.77
2023-10-09T01:22:45.079Z,15.69
2023-10-09T01:24:45.192Z,15.58
2023-10-09T01:26:44.793Z,15.56
2023-10-09T01:28:44.935Z,15.5
2023-10-09T01:30:44.800Z,15.46
2023-10-09T01:32:44.787Z,15.47
2023-10-09T01:36:41.713Z,15.35
2023-10-09T01:38:41.712Z,15.33
2023-10-09T01:40:41.656Z,15.26
2023-10-09T01:42:43.586Z,15.19
2023-10-09T01:44:41.637Z,15.1
2023-10-09T01:46:44.716Z,15.14
2023-10-09T01:48:41.779Z,15.09
2023-10-09T01:51:34.960Z,15.03
2023-10-09T01:53:34.971Z,14.98
2023-10-09T01:55:35.043Z,14.97
2023-10-09T01:57:34.995Z,14.97
2023-10-09T01:59:35.572Z,14.98
2023-10-09T02:01:34.988Z,14.9
2023-10-09T02:03:35.053Z,14.82
2023-10-09T02:06:54.985Z,14.67
2023-10-09T02:08:54.991Z,14.67
2023-10-09T02:10:54.947Z,14.67
2023-10-09T02:12:55.126Z,14.61
2023-10-09T02:14:54.966Z,14.53
2023-10-09T02:16:55.009Z,14.53
2023-10-09T02:18:55.136Z,14.54
2023-10-09T02:21:29.864Z,14.57
2023-10-09T02:23:29.817Z,14.61
2023-10-09T02:25:30.010Z,14.51
2023-10-09T02:27:29.825Z,14.37
2023-10-09T02:29:29.774Z,14.28
2023-10-09T02:31:29.930Z,14.24
2023-10-09T02:33:29.795Z,14.29
2023-10-09T02:36:32.931Z,14.38
2023-10-09T02:38:32.573Z,14.33
2023-10-09T02:40:32.567Z,14.25
2023-10-09T02:42:32.953Z,14.21
2023-10-09T02:44:32.585Z,14.15
2023-10-09T02:46:32.737Z,14.09
2023-10-09T02:48:32.887Z,14.04
2023-10-09T02:50:32.561Z,14.04
2023-10-09T02:52:29.754Z,14.06
2023-10-09T02:54:30.078Z,14.07
2023-10-09T02:56:29.786Z,14.05
2023-10-09T02:58:29.740Z,14.02
2023-10-09T03:00:29.800Z,13.97
2023-10-09T03:02:29.757Z,13.81
2023-10-09T03:04:29.750Z,13.69
2023-10-09T03:07:11.870Z,13.94
2023-10-09T03:09:11.400Z,13.98
2023-10-09T03:11:11.355Z,13.96
2023-10-09T03:13:11.566Z,13.93
2023-10-09T03:15:11.496Z,13.85
2023-10-09T03:17:11.451Z,13.78
2023-10-09T03:19:11.697Z,13.74
2023-10-09T03:22:33.626Z,13.68
2023-10-09T03:24:33.782Z,13.74
2023-10-09T03:26:33.623Z,13.67
2023-10-09T03:28:33.637Z,13.67
2023-10-09T03:30:34.047Z,13.64
2023-10-09T03:32:33.633Z,13.56
2023-10-09T03:34:33.728Z,13.55
2023-10-09T03:37:59.929Z,13.43
2023-10-09T03:39:59.832Z,13.37
2023-10-09T03:41:59.902Z,13.28
2023-10-09T03:43:59.828Z,13.29
2023-10-09T03:45:59.772Z,13.28
2023-10-09T03:47:59.893Z,13.2
2023-10-09T03:50:00.464Z,13.24
2023-10-09T03:52:38.649Z,13.13
2023-10-09T03:54:38.649Z,13.13
2023-10-09T03:56:38.697Z,13.04
2023-10-09T03:58:38.644Z,12.96
2023-10-09T04:00:38.818Z,12.93
2023-10-09T04:02:38.776Z,12.93
2023-10-09T04:04:38.693Z,12.89
2023-10-09T04:08:05.307Z,12.84
2023-10-09T04:10:05.090Z,12.87
2023-10-09T04:12:05.134Z,12.88
2023-10-09T04:14:05.195Z,12.8
2023-10-09T04:16:05.141Z,12.81
2023-10-09T04:18:05.170Z,12.71
2023-10-09T04:20:05.470Z,12.63
2023-10-09T04:22:46.961Z,12.6
2023-10-09T04:24:46.967Z,12.62
2023-10-09T04:26:46.890Z,12.61
2023-10-09T04:28:46.824Z,12.61
2023-10-09T04:30:46.889Z,12.57
2023-10-09T04:32:47.093Z,12.55
2023-10-09T04:34:46.797Z,12.52
2023-10-09T04:38:10.317Z,12.51
2023-10-09T04:40:10.192Z,12.44
2023-10-09T04:42:10.088Z,12.37
2023-10-09T04:44:10.273Z,12.32
2023-10-09T04:46:10.151Z,12.22
2023-10-09T04:48:10.176Z,12.19
2023-10-09T04:50:10.109Z,12.03
2023-10-09T04:53:47.026Z,12.07
2023-10-09T04:55:47.351Z,12.12
2023-10-09T04:57:47.310Z,12.18
2023-10-09T04:59:47.051Z,12.2
2023-10-09T05:01:47.259Z,12.18
2023-10-09T05:03:47.146Z,12.15
2023-10-09T05:05:47.094Z,12.24
2023-10-09T05:09:02.219Z,12.13
2023-10-09T05:11:02.229Z,12.17
2023-10-09T05:13:02.047Z,12.03
2023-10-09T05:15:02.297Z,12.24
2023-10-09T05:17:01.975Z,12.33
2023-10-09T05:19:02.024Z,12.45
2023-10-09T05:21:02.376Z,12.45
2023-10-09T05:23:32.289Z,12.51
2023-10-09T05:25:32.338Z,12.51
2023-10-09T05:27:32.661Z,12.75
2023-10-09T05:29:32.285Z,13.62
2023-10-09T05:31:32.315Z,14.56
2023-10-09T05:33:32.527Z,14.3
2023-10-09T05:35:32.263Z,14.38
2023-10-09T05:39:16.094Z,13.94
2023-10-09T05:41:15.434Z,13.87
2023-10-09T05:43:15.495Z,13.49
2023-10-09T05:45:15.569Z,13.42
2023-10-09T05:47:15.348Z,13.48
2023-10-09T05:49:15.512Z,13.61
2023-10-09T05:51:15.451Z,13.81
2023-10-09T05:54:09.646Z,13.9
2023-10-09T05:56:09.638Z,13.94
2023-10-09T05:58:10.004Z,14.06
2023-10-09T06:00:09.701Z,13.84
2023-10-09T06:02:09.636Z,14.06
2023-10-09T06:04:09.884Z,14.19
2023-10-09T06:06:09.612Z,14.24
2023-10-09T06:09:15.296Z,14.29
2023-10-09T06:11:14.311Z,14.61
2023-10-09T06:13:14.224Z,13.75
2023-10-09T06:15:14.166Z,13.48
2023-10-09T06:17:14.345Z,13.94
2023-10-09T06:19:14.436Z,14.13
2023-10-09T06:21:14.011Z,14.15
2023-10-09T06:24:33.504Z,14.49
2023-10-09T06:26:33.172Z,14.44
2023-10-09T06:28:33.188Z,14.4
2023-10-09T06:30:33.579Z,14.47
2023-10-09T06:32:33.185Z,14.77
2023-10-09T06:34:33.176Z,14.7
2023-10-09T06:36:33.505Z,14.86
2023-10-09T06:39:21.615Z,14.46
2023-10-09T06:41:21.020Z,15.15
2023-10-09T06:43:21.123Z,15.23
2023-10-09T06:45:22.216Z,15.43
2023-10-09T06:47:21.100Z,15.8
2023-10-09T06:49:21.019Z,15.57
2023-10-09T06:51:21.101Z,15.61
2023-10-09T06:53:25.623Z,15.69
2023-10-09T06:54:35.261Z,15.39
2023-10-09T06:56:35.299Z,15.19
2023-10-09T06:58:35.236Z,15.3
2023-10-09T07:00:35.236Z,15.86
2023-10-09T07:02:35.598Z,15.82
2023-10-09T07:04:35.363Z,16.2
2023-10-09T07:06:35.349Z,15.76
2023-10-09T07:08:35.379Z,15.66
2023-10-09T07:10:16.690Z,15.93
2023-10-09T07:12:16.734Z,16
2023-10-09T07:14:16.890Z,15.94
2023-10-09T07:16:16.716Z,15.9
2023-10-09T07:18:16.701Z,16.06
2023-10-09T07:20:16.878Z,16.22
2023-10-09T07:22:16.646Z,15.84
2023-10-09T07:24:48.161Z,15.7
2023-10-09T07:26:48.165Z,16.25
2023-10-09T07:28:48.189Z,16.2
2023-10-09T07:30:48.282Z,16.27
2023-10-09T07:32:48.108Z,16.52
2023-10-09T07:34:48.100Z,16.53
2023-10-09T07:36:48.372Z,16.94
2023-10-09T07:38:48.103Z,16.9
2023-10-09T07:40:04.125Z,17
2023-10-09T07:42:04.505Z,17.08
2023-10-09T07:44:04.255Z,16.73
2023-10-09T07:46:04.255Z,17.08
2023-10-09T07:48:04.310Z,16.88
2023-10-09T07:50:04.314Z,16.13
2023-10-09T07:52:04.213Z,16.15
2023-10-09T07:54:04.188Z,16.62
2023-10-09T07:55:20.906Z,16.91
2023-10-09T07:57:20.892Z,17.04
2023-10-09T07:59:20.950Z,17.53
2023-10-09T08:01:20.891Z,17.86
2023-10-09T08:03:20.934Z,17.75
2023-10-09T08:05:20.933Z,17.33
2023-10-09T08:08:02.158Z,17.63
2023-10-09T08:10:35.971Z,17.41
2023-10-09T08:12:35.609Z,17.58
2023-10-09T08:14:35.679Z,17.82
2023-10-09T08:16:35.772Z,16.99
2023-10-09T08:18:35.756Z,17.43
2023-10-09T08:20:35.699Z,17.4
2023-10-09T08:22:35.872Z,18.11
2023-10-09T08:25:59.182Z,18.35
2023-10-09T08:27:59.406Z,17.79
2023-10-09T08:29:59.190Z,17.57
2023-10-09T08:31:59.364Z,17.69
2023-10-09T08:35:59.461Z,18.09
2023-10-09T08:37:59.363Z,17.4
2023-10-09T08:41:30.892Z,17.96
2023-10-09T08:43:30.741Z,18.3
2023-10-09T08:45:30.760Z,18.31
2023-10-09T08:47:30.699Z,18.53
2023-10-09T08:49:30.684Z,18.99
2023-10-09T08:51:30.722Z,19.28
2023-10-09T08:53:30.674Z,18.74
2023-10-09T08:56:05.051Z,19.03
2023-10-09T08:58:05.065Z,18.71
2023-10-09T09:00:05.307Z,18.59
2023-10-09T09:02:04.950Z,18.22
2023-10-09T09:04:04.912Z,18.47
2023-10-09T09:06:05.149Z,18.76
2023-10-09T09:08:05.036Z,18.77
2023-10-09T09:11:24.862Z,17.86
2023-10-09T09:13:24.688Z,17.52
2023-10-09T09:15:24.620Z,17.49
2023-10-09T09:17:24.857Z,18.35
2023-10-09T09:19:24.647Z,18.85
2023-10-09T09:21:24.668Z,19.44
2023-10-09T09:23:24.736Z,19.09
2023-10-09T09:26:14.946Z,19.4
2023-10-09T09:28:14.970Z,19.63
2023-10-09T09:30:15.147Z,19.92
2023-10-09T09:32:15.007Z,19.87
2023-10-09T09:34:15.097Z,18.96
2023-10-09T09:36:15.166Z,19.14
2023-10-09T09:38:14.920Z,19.21
2023-10-09T09:40:14.976Z,19.84
2023-10-09T09:42:05.893Z,20.21
2023-10-09T09:44:05.876Z,20.04
2023-10-09T09:46:05.884Z,20.11
2023-10-09T09:48:06.162Z,18.8
2023-10-09T09:50:05.851Z,18.74
2023-10-09T09:52:05.830Z,19.01
2023-10-09T09:54:05.995Z,18.63
2023-10-09T09:56:43.864Z,19.14
2023-10-09T09:58:44.206Z,19.1
2023-10-09T10:00:43.970Z,19.18
2023-10-09T10:02:44.080Z,19.68
2023-10-09T10:04:43.857Z,19.8
2023-10-09T10:06:43.784Z,20.37
2023-10-09T10:08:43.974Z,20.35
2023-10-09T10:12:28.102Z,20.33
2023-10-09T10:14:28.246Z,20.54
2023-10-09T10:16:28.101Z,20.69
2023-10-09T10:18:28.270Z,20.43
2023-10-09T10:20:28.003Z,20.84
2023-10-09T10:22:28.027Z,20.92
2023-10-09T10:24:28.128Z,20.41
2023-10-09T10:27:33.140Z,20.73
2023-10-09T10:29:33.349Z,20.38
2023-10-09T10:31:33.127Z,20.42
2023-10-09T10:33:33.102Z,20.78
2023-10-09T10:35:33.284Z,20.52
2023-10-09T10:37:33.145Z,20.82
2023-10-09T10:39:33.134Z,21.08
2023-10-09T10:42:11.509Z,20.47
2023-10-09T10:44:11.497Z,20.34
2023-10-09T10:46:11.451Z,20.79
2023-10-09T10:48:11.471Z,20.98
2023-10-09T10:50:11.429Z,20.97
2023-10-09T10:52:11.548Z,21.21
2023-10-09T10:54:11.488Z,21.07
2023-10-09T10:57:43.366Z,20.52
2023-10-09T10:59:43.183Z,20.23
2023-10-09T11:01:43.327Z,20.32
2023-10-09T11:03:43.532Z,20.69
2023-10-09T11:05:43.161Z,20.62
2023-10-09T11:07:43.263Z,19.98
2023-10-09T11:09:52.845Z,20.34
2023-10-09T11:12:45.173Z,20.8
2023-10-09T11:14:45.353Z,20.61
2023-10-09T11:16:45.396Z,20.55
2023-10-09T11:18:45.213Z,20.2
2023-10-09T11:20:45.179Z,20.35
2023-10-09T11:22:45.241Z,20.75
2023-10-09T11:24:45.184Z,20.97
2023-10-09T11:28:18.050Z,21.24
2023-10-09T11:30:18.017Z,21
2023-10-09T11:32:17.983Z,20.72
2023-10-09T11:34:18.240Z,20.91
2023-10-09T11:36:17.961Z,20.67
2023-10-09T11:38:17.972Z,20.3
2023-10-09T11:40:18.160Z,19.83
2023-10-09T11:42:55.205Z,20.51
2023-10-09T11:44:55.201Z,20.6
2023-10-09T11:46:55.459Z,20.27
2023-10-09T11:48:55.170Z,20.64
2023-10-09T11:50:55.193Z,20.33
2023-10-09T11:52:55.448Z,20.48
2023-10-09T11:54:55.160Z,20.64
2023-10-09T11:57:54.756Z,20.85
2023-10-09T11:59:55.073Z,20.83
2023-10-09T12:01:54.784Z,20.52
2023-10-09T12:03:54.887Z,20.44
2023-10-09T12:05:55.266Z,20.58
2023-10-09T12:07:54.757Z,20.95
2023-10-09T12:09:54.746Z,20.96
2023-10-09T12:12:03.400Z,20.93
2023-10-09T12:13:53.313Z,21.22
2023-10-09T12:15:53.222Z,21.45
2023-10-09T12:17:53.762Z,21.28
2023-10-09T12:19:53.285Z,21.39
2023-10-09T12:21:53.230Z,21.44
2023-10-09T12:23:53.320Z,21.56
2023-10-09T12:25:53.222Z,20.96
2023-10-09T12:28:25.073Z,20.65
2023-10-09T12:30:25.123Z,20.99
2023-10-09T12:32:25.144Z,21.21
2023-10-09T12:34:25.040Z,21.48
2023-10-09T12:36:25.276Z,21.51
2023-10-09T12:38:25.149Z,21.45
2023-10-09T12:40:25.021Z,21.53
2023-10-09T12:44:04.407Z,21.31
2023-10-09T12:46:04.201Z,21.52
2023-10-09T12:48:04.473Z,21.67
2023-10-09T12:50:04.488Z,21.74
2023-10-09T12:52:05.013Z,20.91
2023-10-09T12:54:04.211Z,20.79
2023-10-09T12:56:04.669Z,21.09
2023-10-09T12:58:42.913Z,21.22
2023-10-09T13:00:40.164Z,21.45
2023-10-09T13:02:40.336Z,21.58
2023-10-09T13:04:40.128Z,21.14
2023-10-09T13:06:40.080Z,21.17
2023-10-09T13:08:40.417Z,20.79
2023-10-09T13:10:40.108Z,20.73
2023-10-09T13:12:40.215Z,21.16
2023-10-09T13:14:19.134Z,21.28
2023-10-09T13:16:18.823Z,20.88
2023-10-09T13:18:18.792Z,21.16
2023-10-09T13:20:19.164Z,21.07
2023-10-09T13:22:18.740Z,21.27
2023-10-09T13:24:18.850Z,21.1
2023-10-09T13:29:27.803Z,21
2023-10-09T13:31:30.881Z,21.21
2023-10-09T13:33:27.919Z,21.33
2023-10-09T13:35:27.822Z,21.04
2023-10-09T13:37:28.187Z,21.16
2023-10-09T13:39:28.361Z,21.25
2023-10-09T13:41:27.793Z,21.2
2023-10-09T13:44:45.364Z,21.13
2023-10-09T13:46:45.135Z,21.16
2023-10-09T13:48:45.038Z,21.11
2023-10-09T13:50:45.222Z,21.05
2023-10-09T13:52:45.095Z,21.03
2023-10-09T13:54:45.064Z,21.06
2023-10-09T13:56:45.111Z,21.11
2023-10-09T13:59:44.297Z,21.12
2023-10-09T14:01:44.354Z,21.1
2023-10-09T14:03:44.532Z,21.09
2023-10-09T14:05:44.240Z,21
2023-10-09T14:07:44.270Z,20.88
2023-10-09T14:09:44.426Z,20.8
2023-10-09T14:11:44.258Z,20.76
2023-10-09T14:14:58.851Z,20.63
2023-10-09T14:16:58.741Z,20.51
2023-10-09T14:18:58.607Z,20.5
2023-10-09T14:20:58.736Z,20.47
2023-10-09T14:22:58.575Z,20.35
2023-10-09T14:24:58.574Z,20.21
2023-10-09T14:26:58.771Z,20.11
2023-10-09T14:29:41.464Z,19.95
2023-10-09T14:31:41.517Z,19.8
2023-10-09T14:33:41.630Z,19.71
2023-10-09T14:35:41.450Z,19.59
2023-10-09T14:37:41.493Z,19.57
2023-10-09T14:39:41.558Z,19.53
2023-10-09T14:41:41.478Z,19.45
2023-10-09T14:43:41.567Z,19.37
2023-10-09T14:45:01.516Z,19.38
2023-10-09T14:47:01.506Z,19.34
2023-10-09T14:49:02.941Z,19.31
2023-10-09T14:51:01.470Z,19.35
2023-10-09T14:53:01.378Z,19.3
2023-10-09T14:55:01.366Z,19.29
2023-10-09T14:57:01.667Z,19.19
2023-10-09T15:00:35.380Z,19.16
2023-10-09T15:02:35.767Z,19.09
2023-10-09T15:04:35.334Z,19
2023-10-09T15:06:35.357Z,18.93
2023-10-09T15:08:35.429Z,18.84
2023-10-09T15:10:35.421Z,18.71
2023-10-09T15:12:35.301Z,18.66
2023-10-09T15:15:58.740Z,18.52
2023-10-09T15:17:58.550Z,18.49
2023-10-09T15:19:58.641Z,18.46
2023-10-09T15:21:59.059Z,18.4
2023-10-09T15:23:58.584Z,18.4
2023-10-09T15:25:58.699Z,18.5
2023-10-09T15:27:58.799Z,18.49
2023-10-09T15:30:26.454Z,18.46
2023-10-09T15:32:26.531Z,18.4
2023-10-09T15:34:26.743Z,18.4
2023-10-09T15:36:26.496Z,18.39
2023-10-09T15:38:26.456Z,18.33
2023-10-09T15:40:26.606Z,18.24
2023-10-09T15:42:26.422Z,18.14
2023-10-09T15:44:42.301Z,18.15
2023-10-09T15:46:42.362Z,18.04
2023-10-09T15:48:42.355Z,17.92
2023-10-09T15:50:42.447Z,17.84
2023-10-09T15:52:42.365Z,17.82
2023-10-09T15:54:42.283Z,17.76
2023-10-09T15:56:44.994Z,17.68
2023-10-09T15:58:42.385Z,17.65
2023-10-09T16:00:31.877Z,17.65
2023-10-09T16:02:32.136Z,17.64
2023-10-09T16:04:31.844Z,17.64
2023-10-09T16:06:31.826Z,17.64
2023-10-09T16:08:31.824Z,17.59
2023-10-09T16:10:31.808Z,17.53
2023-10-09T16:12:31.853Z,17.5
2023-10-09T16:15:29.000Z,17.48
2023-10-09T16:17:28.960Z,17.49
2023-10-09T16:19:28.875Z,17.52
2023-10-09T16:21:28.900Z,17.48
2023-10-09T16:23:28.937Z,17.48
2023-10-09T16:25:28.983Z,17.48
2023-10-09T16:27:28.894Z,17.46
2023-10-09T16:30:35.883Z,17.44
2023-10-09T16:32:35.628Z,17.36
2023-10-09T16:34:35.573Z,17.27
2023-10-09T16:36:35.769Z,17.14
2023-10-09T16:38:35.488Z,17.06
2023-10-09T16:40:35.686Z,16.95
2023-10-09T16:42:35.657Z,16.87
2023-10-09T16:46:19.991Z,16.66
2023-10-09T16:48:20.008Z,16.58
2023-10-09T16:50:20.012Z,16.51
2023-10-09T16:52:19.972Z,16.47
2023-10-09T16:54:20.037Z,16.36
2023-10-09T16:56:20.004Z,16.26
2023-10-09T16:58:19.874Z,16.18
2023-10-09T17:01:20.633Z,16.12
2023-10-09T17:03:20.677Z,16.07
2023-10-09T17:05:20.674Z,15.99
2023-10-09T17:07:20.963Z,15.9
2023-10-09T17:09:20.727Z,15.87
2023-10-09T17:11:21.080Z,15.88
2023-10-09T17:13:20.566Z,15.86
2023-10-09T17:16:12.088Z,15.77
2023-10-09T17:18:11.994Z,15.69
2023-10-09T17:20:12.021Z,15.72
2023-10-09T17:22:12.603Z,15.76
2023-10-09T17:24:12.592Z,15.72
2023-10-09T17:26:12.146Z,15.72
2023-10-09T17:28:12.374Z,15.7
2023-10-09T17:31:13.828Z,15.56
2023-10-09T17:33:14.025Z,15.59
2023-10-09T17:35:13.866Z,15.56
2023-10-09T17:37:13.802Z,15.6
2023-10-09T17:39:14.182Z,15.66
2023-10-09T17:41:13.782Z,15.69
2023-10-09T17:43:13.833Z,15.66
2023-10-09T17:46:17.613Z,15.55
2023-10-09T17:48:17.521Z,15.44
2023-10-09T17:50:17.584Z,15.43
2023-10-09T17:52:17.472Z,15.43
2023-10-09T17:54:17.450Z,15.4
2023-10-09T17:56:17.672Z,15.32
2023-10-09T17:58:17.488Z,15.23
2023-10-09T18:01:24.371Z,15.07
2023-10-09T18:03:24.300Z,15.01
2023-10-09T18:05:24.083Z,14.96
2023-10-09T18:07:24.609Z,14.87
2023-10-09T18:09:23.990Z,14.87
2023-10-09T18:11:24.061Z,14.8
2023-10-09T18:13:24.258Z,14.72
2023-10-09T18:15:23.975Z,14.68
2023-10-09T18:16:49.824Z,14.67
2023-10-09T18:18:49.880Z,14.69
2023-10-09T18:20:50.435Z,14.67
2023-10-09T18:22:49.783Z,14.69
2023-10-09T18:24:50.190Z,14.77
2023-10-09T18:26:49.756Z,14.9
2023-10-09T18:28:50.056Z,14.97
2023-10-09T18:31:55.385Z,15.11
2023-10-09T18:33:55.331Z,15.24
2023-10-09T18:35:55.927Z,15.32
2023-10-09T18:37:55.395Z,15.4
2023-10-09T18:39:55.338Z,15.42
2023-10-09T18:41:55.442Z,15.44
2023-10-09T18:43:55.367Z,15.48
2023-10-09T18:47:08.836Z,15.37
2023-10-09T18:49:08.428Z,15.1
2023-10-09T18:51:08.723Z,15.04
2023-10-09T18:53:08.549Z,14.88
2023-10-09T18:55:08.317Z,14.83
2023-10-09T18:57:08.318Z,14.75
2023-10-09T18:59:08.448Z,14.69
2023-10-09T19:02:13.022Z,14.53
2023-10-09T19:04:13.180Z,14.53
2023-10-09T19:06:12.769Z,14.54
2023-10-09T19:08:12.760Z,14.54
2023-10-09T19:10:12.795Z,14.45
2023-10-09T19:12:12.626Z,14.44
2023-10-09T19:14:12.757Z,14.3
2023-10-09T19:18:01.423Z,14.33
2023-10-09T19:20:01.384Z,14.25
2023-10-09T19:22:03.109Z,14.18
2023-10-09T19:24:01.448Z,14.18
2023-10-09T19:26:01.407Z,14.14
2023-10-09T19:28:01.373Z,14.04
2023-10-09T19:30:01.375Z,14.05
2023-10-09T19:32:41.084Z,14.01
2023-10-09T19:34:40.903Z,13.83
2023-10-09T19:36:40.762Z,13.88
2023-10-09T19:38:40.745Z,13.96
2023-10-09T19:40:40.740Z,13.96
2023-10-09T19:42:40.957Z,13.99
2023-10-09T19:44:40.732Z,13.94
2023-10-09T19:47:29.839Z,13.86
2023-10-09T19:49:30.079Z,13.84
2023-10-09T19:51:29.527Z,13.81
2023-10-09T19:53:29.556Z,13.82
2023-10-09T19:55:29.493Z,13.81
2023-10-09T19:57:29.628Z,13.86
2023-10-09T19:59:29.533Z,13.73
2023-10-09T20:01:29.534Z,13.65
2023-10-09T20:02:53.248Z,13.58
2023-10-09T20:04:52.938Z,13.62
2023-10-09T20:06:52.965Z,13.52
2023-10-09T20:08:52.948Z,13.49
2023-10-09T20:10:52.966Z,13.45
2023-10-09T20:12:52.839Z,13.46
2023-10-09T20:14:52.878Z,13.44
2023-10-09T20:17:45.853Z,13.41
2023-10-09T20:19:45.764Z,13.41
2023-10-09T20:21:45.683Z,13.4
2023-10-09T20:23:45.691Z,13.36
2023-10-09T20:25:45.694Z,13.3
2023-10-09T20:27:45.694Z,13.27
2023-10-09T20:29:45.721Z,13.25
2023-10-09T20:31:45.988Z,13.28
2023-10-09T20:33:51.446Z,13.19
2023-10-09T20:35:51.436Z,13.18
2023-10-09T20:37:51.459Z,13.22
2023-10-09T20:39:51.490Z,13.2
2023-10-09T20:41:51.402Z,13.21
2023-10-09T20:43:51.557Z,13.21
2023-10-09T20:45:51.844Z,13.16
2023-10-09T20:48:53.156Z,13.16
2023-10-09T20:50:53.447Z,13.16
2023-10-09T20:52:53.215Z,13.13
2023-10-09T20:54:53.116Z,13.15
2023-10-09T20:56:53.628Z,13.17
2023-10-09T20:58:53.258Z,13.22
2023-10-09T21:00:53.206Z,13.24
2023-10-09T21:03:26.386Z,13.26
2023-10-09T21:05:26.529Z,13.32
2023-10-09T21:07:26.397Z,13.4
2023-10-09T21:09:26.434Z,13.44
2023-10-09T21:11:26.362Z,13.44
2023-10-09T21:13:26.337Z,13.4
2023-10-09T21:15:26.622Z,13.31
2023-10-09T21:18:34.825Z,13.24
2023-10-09T21:20:37.336Z,13.32
2023-10-09T21:22:34.887Z,13.21
2023-10-09T21:24:34.852Z,13.24
2023-10-09T21:26:34.814Z,13.23
2023-10-09T21:28:34.731Z,13.26
2023-10-09T21:30:34.716Z,13.29
2023-10-09T21:33:40.302Z,13.33
2023-10-09T21:35:40.304Z,13.33
2023-10-09T21:37:40.337Z,13.38
2023-10-09T21:39:40.282Z,13.39
2023-10-09T21:41:40.363Z,13.39
2023-10-09T21:43:40.322Z,13.39
2023-10-09T21:45:40.424Z,13.43
2023-10-09T21:47:40.611Z,13.5
2023-10-09T21:49:37.382Z,13.47
2023-10-09T21:51:37.361Z,13.33
2023-10-09T21:53:37.398Z,13.44
2023-10-09T21:55:37.366Z,13.51
2023-10-09T21:57:37.395Z,13.52
2023-10-09T21:59:37.373Z,13.59
2023-10-09T22:01:37.410Z,13.63
2023-10-09T22:03:59.345Z,13.63
2023-10-09T22:05:58.958Z,13.57
2023-10-09T22:07:59.010Z,13.55
2023-10-09T22:09:59.168Z,13.59
2023-10-09T22:11:58.940Z,13.63
2023-10-09T22:13:58.962Z,13.49
2023-10-09T22:15:59.161Z,13.55
2023-10-09T22:17:59.033Z,13.68
2023-10-09T22:19:38.009Z,13.73
2023-10-09T22:21:37.979Z,13.69
2023-10-09T22:23:37.879Z,13.7
2023-10-09T22:25:37.944Z,13.74
2023-10-09T22:27:37.947Z,13.47
2023-10-09T22:29:37.898Z,13.57
2023-10-09T22:31:37.864Z,13.7
2023-10-09T22:35:10.029Z,13.8
2023-10-09T22:37:10.041Z,13.76
2023-10-09T22:39:10.378Z,13.77
2023-10-09T22:41:10.039Z,13.7
2023-10-09T22:43:10.087Z,13.71
2023-10-09T22:45:10.069Z,13.7
2023-10-09T22:47:10.069Z,13.53
2023-10-09T22:50:10.451Z,13.25
2023-10-09T22:52:10.594Z,13.3
2023-10-09T22:54:10.529Z,13.33
2023-10-09T22:56:10.581Z,13.29
2023-10-09T22:58:10.542Z,13.27
2023-10-09T23:00:10.417Z,13.22
2023-10-09T23:02:10.598Z,13.2
2023-10-09T23:04:59.245Z,13.2
2023-10-09T23:06:59.236Z,13.13
2023-10-09T23:08:59.416Z,13
2023-10-09T23:10:59.220Z,12.93
2023-10-09T23:12:59.223Z,12.97
2023-10-09T23:14:59.251Z,12.94
2023-10-09T23:17:01.415Z,12.87
2023-10-09T23:20:13.091Z,12.79
2023-10-09T23:22:13.028Z,12.73
2023-10-09T23:24:13.029Z,12.74
2023-10-09T23:26:13.049Z,12.73
2023-10-09T23:28:13.028Z,12.71
2023-10-09T23:30:13.414Z,12.68
2023-10-09T23:32:13.212Z,12.73
2023-10-09T23:35:53.376Z,12.8
2023-10-09T23:37:53.403Z,12.86
2023-10-09T23:39:53.364Z,12.79
2023-10-09T23:41:53.625Z,12.8
2023-10-09T23:43:53.454Z,12.78
2023-10-09T23:45:53.489Z,12.62
2023-10-09T23:47:53.698Z,12.54
2023-10-09T23:50:08.765Z,12.65
2023-10-09T23:52:07.735Z,12.68
2023-10-09T23:54:07.506Z,12.71
2023-10-09T23:56:07.582Z,12.68
2023-10-09T23:58:07.512Z,12.73
